sensor_id;sensor_type;location;lat;lon;timestamp;P1;P2;P0
69205;PMS7003;56319;48.920;2.332;2023-02-11T00:01:15;15.25;14.25;12.25
69205;PMS7003;56319;48.920;2.332;2023-02-11T00:03:46;14.25;13.25;11.50
69205;PMS7003;56319;48.920;2.332;2023-02-11T00:06:12;9.00;9.00;6.25
69205;PMS7003;56319;48.920;2.332;2023-02-11T00:08:37;13.25;12.25;11.50
69205;PMS7003;56319;48.920;2.332;2023-02-11T00:11:04;15.50;15.00;13.00
69205;PMS7003;56319;48.920;2.332;2023-02-11T00:13:29;15.50;14.50;11.75
69205;PMS7003;56319;48.920;2.332;2023-02-11T00:15:55;15.00;14.25;12.25
69205;PMS7003;56319;48.920;2.332;2023-02-11T00:18:21;17.50;16.00;12.25
69205;PMS7003;56319;48.920;2.332;2023-02-11T00:20:47;14.25;14.25;12.00
69205;PMS7003;56319;48.920;2.332;2023-02-11T00:23:12;15.00;13.75;11.25
69205;PMS7003;56319;48.920;2.332;2023-02-11T00:25:39;14.00;13.75;11.00
69205;PMS7003;56319;48.920;2.332;2023-02-11T00:28:06;14.00;13.50;11.50
69205;PMS7003;56319;48.920;2.332;2023-02-11T00:30:33;15.50;13.25;10.25
69205;PMS7003;56319;48.920;2.332;2023-02-11T00:32:58;17.25;16.50;12.75
69205;PMS7003;56319;48.920;2.332;2023-02-11T00:35:24;17.00;16.00;13.25
69205;PMS7003;56319;48.920;2.332;2023-02-11T00:37:51;14.50;13.50;11.25
69205;PMS7003;56319;48.920;2.332;2023-02-11T00:40:18;15.00;14.00;11.75
69205;PMS7003;56319;48.920;2.332;2023-02-11T00:42:43;13.50;13.50;11.50
69205;PMS7003;56319;48.920;2.332;2023-02-11T00:45:09;15.75;13.00;11.50
69205;PMS7003;56319;48.920;2.332;2023-02-11T00:47:35;16.25;14.25;11.25
69205;PMS7003;56319;48.920;2.332;2023-02-11T00:50:01;15.75;13.25;11.50
69205;PMS7003;56319;48.920;2.332;2023-02-11T00:52:29;17.25;15.25;11.75
69205;PMS7003;56319;48.920;2.332;2023-02-11T00:54:56;18.00;15.75;12.75
69205;PMS7003;56319;48.920;2.332;2023-02-11T00:57:21;15.50;14.50;10.50
69205;PMS7003;56319;48.920;2.332;2023-02-11T00:59:47;16.50;16.00;13.00
69205;PMS7003;56319;48.920;2.332;2023-02-11T01:02:13;15.00;15.00;12.25
69205;PMS7003;56319;48.920;2.332;2023-02-11T01:04:38;18.25;16.25;11.50
69205;PMS7003;56319;48.920;2.332;2023-02-11T01:07:04;16.50;15.75;12.75
69205;PMS7003;56319;48.920;2.332;2023-02-11T01:09:29;17.25;14.00;11.75
69205;PMS7003;56319;48.920;2.332;2023-02-11T01:11:55;18.50;16.50;13.25
69205;PMS7003;56319;48.920;2.332;2023-02-11T01:14:20;14.50;14.25;11.50
69205;PMS7003;56319;48.920;2.332;2023-02-11T01:16:46;12.00;12.00;11.25
69205;PMS7003;56319;48.920;2.332;2023-02-11T01:19:12;15.25;12.00;11.75
69205;PMS7003;56319;48.920;2.332;2023-02-11T01:21:37;15.50;14.50;12.50
69205;PMS7003;56319;48.920;2.332;2023-02-11T01:24:03;15.50;13.50;11.50
69205;PMS7003;56319;48.920;2.332;2023-02-11T01:26:28;19.50;15.00;12.25
69205;PMS7003;56319;48.920;2.332;2023-02-11T01:28:54;16.25;15.75;12.25
69205;PMS7003;56319;48.920;2.332;2023-02-11T01:31:20;14.50;14.50;11.50
69205;PMS7003;56319;48.920;2.332;2023-02-11T01:33:45;16.00;14.25;12.25
69205;PMS7003;56319;48.920;2.332;2023-02-11T01:36:11;14.25;13.75;11.75
69205;PMS7003;56319;48.920;2.332;2023-02-11T01:38:37;18.50;14.50;10.75
69205;PMS7003;56319;48.920;2.332;2023-02-11T01:41:06;21.75;17.75;14.00
69205;PMS7003;56319;48.920;2.332;2023-02-11T01:43:35;16.50;14.75;12.25
69205;PMS7003;56319;48.920;2.332;2023-02-11T01:46:11;16.75;13.75;11.50
69205;PMS7003;56319;48.920;2.332;2023-02-11T01:48:46;20.50;16.75;14.75
69205;PMS7003;56319;48.920;2.332;2023-02-11T01:51:17;15.00;14.50;12.50
69205;PMS7003;56319;48.920;2.332;2023-02-11T01:53:46;14.50;13.50;11.50
69205;PMS7003;56319;48.920;2.332;2023-02-11T01:56:34;16.75;15.25;12.75
69205;PMS7003;56319;48.920;2.332;2023-02-11T01:59:23;17.50;16.50;14.00
69205;PMS7003;56319;48.920;2.332;2023-02-11T02:01:56;16.50;16.50;13.50
69205;PMS7003;56319;48.920;2.332;2023-02-11T02:04:26;18.25;16.00;12.50
69205;PMS7003;56319;48.920;2.332;2023-02-11T02:06:59;17.50;17.50;12.50
69205;PMS7003;56319;48.920;2.332;2023-02-11T02:09:32;18.75;18.25;14.25
69205;PMS7003;56319;48.920;2.332;2023-02-11T02:12:03;21.00;19.25;14.50
69205;PMS7003;56319;48.920;2.332;2023-02-11T02:14:29;18.50;16.50;13.75
69205;PMS7003;56319;48.920;2.332;2023-02-11T02:16:55;17.25;16.25;13.25
69205;PMS7003;56319;48.920;2.332;2023-02-11T02:22:44;23.50;18.25;15.25
69205;PMS7003;56319;48.920;2.332;2023-02-11T02:25:39;19.75;18.50;14.50
69205;PMS7003;56319;48.920;2.332;2023-02-11T02:28:22;24.00;21.00;17.25
69205;PMS7003;56319;48.920;2.332;2023-02-11T02:34:21;22.25;19.25;15.50
69205;PMS7003;56319;48.920;2.332;2023-02-11T02:37:01;20.25;20.25;14.75
69205;PMS7003;56319;48.920;2.332;2023-02-11T02:39:32;20.50;20.25;16.00
69205;PMS7003;56319;48.920;2.332;2023-02-11T02:42:00;21.00;20.50;14.75
69205;PMS7003;56319;48.920;2.332;2023-02-11T02:44:26;20.25;18.50;14.25
69205;PMS7003;56319;48.920;2.332;2023-02-11T02:46:53;23.00;22.25;16.50
69205;PMS7003;56319;48.920;2.332;2023-02-11T02:49:18;20.75;19.50;15.50
69205;PMS7003;56319;48.920;2.332;2023-02-11T02:54:45;23.25;21.25;16.00
69205;PMS7003;56319;48.920;2.332;2023-02-11T03:01:07;27.50;21.00;17.75
69205;PMS7003;56319;48.920;2.332;2023-02-11T03:06:44;27.25;22.00;19.00
69205;PMS7003;56319;48.920;2.332;2023-02-11T03:09:19;27.00;25.00;18.50
69205;PMS7003;56319;48.920;2.332;2023-02-11T03:11:49;22.75;20.75;17.75
69205;PMS7003;56319;48.920;2.332;2023-02-11T03:14:16;22.50;21.00;16.50
69205;PMS7003;56319;48.920;2.332;2023-02-11T03:16:43;27.00;23.75;18.25
69205;PMS7003;56319;48.920;2.332;2023-02-11T03:19:12;23.25;22.00;19.00
69205;PMS7003;56319;48.920;2.332;2023-02-11T03:21:42;26.50;24.00;19.75
69205;PMS7003;56319;48.920;2.332;2023-02-11T03:24:14;27.00;24.75;19.75
69205;PMS7003;56319;48.920;2.332;2023-02-11T03:26:49;25.75;23.75;17.75
69205;PMS7003;56319;48.920;2.332;2023-02-11T03:29:23;26.75;21.75;17.75
69205;PMS7003;56319;48.920;2.332;2023-02-11T03:32:16;20.25;16.50;12.00
69205;PMS7003;56319;48.920;2.332;2023-02-11T03:34:52;30.50;23.50;18.00
69205;PMS7003;56319;48.920;2.332;2023-02-11T03:43:05;30.75;26.50;20.25
69205;PMS7003;56319;48.920;2.332;2023-02-11T03:45:36;30.00;26.75;21.25
69205;PMS7003;56319;48.920;2.332;2023-02-11T03:48:04;28.00;25.25;20.50
69205;PMS7003;56319;48.920;2.332;2023-02-11T03:50:35;27.75;24.50;19.25
69205;PMS7003;56319;48.920;2.332;2023-02-11T03:53:03;23.75;23.25;18.50
69205;PMS7003;56319;48.920;2.332;2023-02-11T03:55:29;26.50;23.00;20.25
69205;PMS7003;56319;48.920;2.332;2023-02-11T03:57:59;25.50;25.50;21.50
69205;PMS7003;56319;48.920;2.332;2023-02-11T04:00:29;28.75;28.75;21.50
69205;PMS7003;56319;48.920;2.332;2023-02-11T04:02:56;28.00;27.50;20.75
69205;PMS7003;56319;48.920;2.332;2023-02-11T04:05:21;26.75;24.75;20.75
69205;PMS7003;56319;48.920;2.332;2023-02-11T04:07:47;30.25;25.75;20.50
69205;PMS7003;56319;48.920;2.332;2023-02-11T04:10:12;27.25;26.25;20.50
69205;PMS7003;56319;48.920;2.332;2023-02-11T04:12:38;27.25;26.75;21.25
69205;PMS7003;56319;48.920;2.332;2023-02-11T04:15:04;28.50;25.00;20.00
69205;PMS7003;56319;48.920;2.332;2023-02-11T04:17:30;32.50;28.50;20.50
69205;PMS7003;56319;48.920;2.332;2023-02-11T04:19:56;36.00;31.50;22.75
69205;PMS7003;56319;48.920;2.332;2023-02-11T04:22:21;36.00;31.00;22.00
69205;PMS7003;56319;48.920;2.332;2023-02-11T04:24:47;31.75;28.50;21.25
69205;PMS7003;56319;48.920;2.332;2023-02-11T04:27:12;29.75;29.00;21.25
69205;PMS7003;56319;48.920;2.332;2023-02-11T04:29:38;33.00;32.50;23.25
69205;PMS7003;56319;48.920;2.332;2023-02-11T04:32:04;34.75;29.25;22.75
69205;PMS7003;56319;48.920;2.332;2023-02-11T04:34:29;29.50;28.25;22.50
69205;PMS7003;56319;48.920;2.332;2023-02-11T04:36:55;33.25;32.75;24.75
69205;PMS7003;56319;48.920;2.332;2023-02-11T04:39:21;30.75;26.75;21.50
69205;PMS7003;56319;48.920;2.332;2023-02-11T04:41:46;31.00;26.25;21.25
69205;PMS7003;56319;48.920;2.332;2023-02-11T04:44:12;31.00;28.00;23.00
69205;PMS7003;56319;48.920;2.332;2023-02-11T04:46:37;33.25;30.75;23.00
69205;PMS7003;56319;48.920;2.332;2023-02-11T04:49:03;33.50;30.50;23.00
69205;PMS7003;56319;48.920;2.332;2023-02-11T04:51:29;31.25;31.00;23.25
69205;PMS7003;56319;48.920;2.332;2023-02-11T04:53:55;34.25;31.50;23.75
69205;PMS7003;56319;48.920;2.332;2023-02-11T04:56:20;32.25;30.00;22.50
69205;PMS7003;56319;48.920;2.332;2023-02-11T04:58:46;35.50;33.25;24.25
69205;PMS7003;56319;48.920;2.332;2023-02-11T05:01:12;31.75;30.00;22.25
69205;PMS7003;56319;48.920;2.332;2023-02-11T05:03:39;32.75;32.00;22.00
69205;PMS7003;56319;48.920;2.332;2023-02-11T05:06:05;35.25;32.75;22.75
69205;PMS7003;56319;48.920;2.332;2023-02-11T05:08:31;29.75;29.00;23.00
69205;PMS7003;56319;48.920;2.332;2023-02-11T05:10:58;38.25;33.25;23.00
69205;PMS7003;56319;48.920;2.332;2023-02-11T05:13:23;31.25;27.75;21.75
69205;PMS7003;56319;48.920;2.332;2023-02-11T05:15:49;38.00;33.25;23.75
69205;PMS7003;56319;48.920;2.332;2023-02-11T05:18:14;36.25;31.50;23.50
69205;PMS7003;56319;48.920;2.332;2023-02-11T05:20:41;36.00;31.00;23.00
69205;PMS7003;56319;48.920;2.332;2023-02-11T05:23:07;34.75;31.50;23.75
69205;PMS7003;56319;48.920;2.332;2023-02-11T05:25:33;32.25;29.25;22.50
69205;PMS7003;56319;48.920;2.332;2023-02-11T05:27:58;32.25;30.50;23.25
69205;PMS7003;56319;48.920;2.332;2023-02-11T05:30:24;39.00;34.00;24.00
69205;PMS7003;56319;48.920;2.332;2023-02-11T05:32:50;33.75;30.25;23.25
69205;PMS7003;56319;48.920;2.332;2023-02-11T05:35:16;36.00;32.00;23.50
69205;PMS7003;56319;48.920;2.332;2023-02-11T05:37:42;33.00;31.50;23.50
69205;PMS7003;56319;48.920;2.332;2023-02-11T05:40:07;39.00;32.50;24.50
69205;PMS7003;56319;48.920;2.332;2023-02-11T05:42:33;32.00;30.00;23.25
69205;PMS7003;56319;48.920;2.332;2023-02-11T05:44:59;32.50;30.25;23.25
69205;PMS7003;56319;48.920;2.332;2023-02-11T05:47:25;34.00;26.50;20.25
69205;PMS7003;56319;48.920;2.332;2023-02-11T05:49:51;35.75;34.00;25.25
69205;PMS7003;56319;48.920;2.332;2023-02-11T05:52:18;38.25;33.50;24.25
69205;PMS7003;56319;48.920;2.332;2023-02-11T05:54:44;30.75;29.50;23.50
69205;PMS7003;56319;48.920;2.332;2023-02-11T05:57:10;32.75;29.00;22.00
69205;PMS7003;56319;48.920;2.332;2023-02-11T05:59:35;35.75;32.50;23.25
69205;PMS7003;56319;48.920;2.332;2023-02-11T06:02:01;33.75;30.25;22.75
69205;PMS7003;56319;48.920;2.332;2023-02-11T06:04:26;34.00;31.00;24.00
69205;PMS7003;56319;48.920;2.332;2023-02-11T06:06:52;37.75;30.25;21.25
69205;PMS7003;56319;48.920;2.332;2023-02-11T06:09:18;40.25;33.75;23.50
69205;PMS7003;56319;48.920;2.332;2023-02-11T06:11:43;33.00;31.75;24.00
69205;PMS7003;56319;48.920;2.332;2023-02-11T06:14:09;35.75;33.25;24.00
69205;PMS7003;56319;48.920;2.332;2023-02-11T06:16:35;39.00;33.75;23.50
69205;PMS7003;56319;48.920;2.332;2023-02-11T06:19:01;37.00;31.25;24.00
69205;PMS7003;56319;48.920;2.332;2023-02-11T06:21:26;38.00;33.50;24.00
69205;PMS7003;56319;48.920;2.332;2023-02-11T06:23:52;32.75;32.25;24.25
69205;PMS7003;56319;48.920;2.332;2023-02-11T06:26:18;39.75;34.00;24.75
69205;PMS7003;56319;48.920;2.332;2023-02-11T06:28:45;38.00;32.75;24.00
69205;PMS7003;56319;48.920;2.332;2023-02-11T06:31:11;35.25;31.25;23.75
69205;PMS7003;56319;48.920;2.332;2023-02-11T06:33:37;32.25;30.00;23.25
69205;PMS7003;56319;48.920;2.332;2023-02-11T06:36:03;35.00;30.50;23.00
69205;PMS7003;56319;48.920;2.332;2023-02-11T06:38:36;36.75;32.75;24.25
69205;PMS7003;56319;48.920;2.332;2023-02-11T06:41:02;35.50;32.25;23.50
69205;PMS7003;56319;48.920;2.332;2023-02-11T06:43:27;37.75;32.75;23.25
69205;PMS7003;56319;48.920;2.332;2023-02-11T06:45:53;29.75;25.50;20.00
69205;PMS7003;56319;48.920;2.332;2023-02-11T06:48:19;33.50;31.00;21.75
69205;PMS7003;56319;48.920;2.332;2023-02-11T06:50:46;38.00;32.50;23.25
69205;PMS7003;56319;48.920;2.332;2023-02-11T06:53:12;38.50;31.75;22.75
69205;PMS7003;56319;48.920;2.332;2023-02-11T06:55:37;36.00;32.00;24.25
69205;PMS7003;56319;48.920;2.332;2023-02-11T06:58:03;43.00;36.25;26.25
69205;PMS7003;56319;48.920;2.332;2023-02-11T07:00:28;31.25;30.00;23.25
69205;PMS7003;56319;48.920;2.332;2023-02-11T07:02:54;34.00;31.50;23.25
69205;PMS7003;56319;48.920;2.332;2023-02-11T07:05:20;34.75;32.50;23.75
69205;PMS7003;56319;48.920;2.332;2023-02-11T07:07:45;34.75;33.00;23.50
69205;PMS7003;56319;48.920;2.332;2023-02-11T07:10:11;36.50;34.75;24.00
69205;PMS7003;56319;48.920;2.332;2023-02-11T07:12:37;31.50;31.50;24.25
69205;PMS7003;56319;48.920;2.332;2023-02-11T07:15:03;33.75;30.75;24.50
69205;PMS7003;56319;48.920;2.332;2023-02-11T07:17:30;35.75;32.00;24.50
69205;PMS7003;56319;48.920;2.332;2023-02-11T07:19:55;41.75;34.75;24.00
69205;PMS7003;56319;48.920;2.332;2023-02-11T07:22:21;39.75;32.50;23.75
69205;PMS7003;56319;48.920;2.332;2023-02-11T07:24:46;36.50;32.00;23.50
69205;PMS7003;56319;48.920;2.332;2023-02-11T07:27:12;30.50;29.00;23.25
69205;PMS7003;56319;48.920;2.332;2023-02-11T07:29:37;36.50;31.50;24.25
69205;PMS7003;56319;48.920;2.332;2023-02-11T07:32:03;39.50;34.25;23.75
69205;PMS7003;56319;48.920;2.332;2023-02-11T07:34:29;34.75;30.50;22.50
69205;PMS7003;56319;48.920;2.332;2023-02-11T07:36:55;36.75;33.00;25.25
69205;PMS7003;56319;48.920;2.332;2023-02-11T07:39:21;39.00;33.75;23.75
69205;PMS7003;56319;48.920;2.332;2023-02-11T07:41:46;40.25;33.50;23.25
69205;PMS7003;56319;48.920;2.332;2023-02-11T07:44:13;39.50;35.00;25.00
69205;PMS7003;56319;48.920;2.332;2023-02-11T07:46:39;35.25;32.25;22.25
69205;PMS7003;56319;48.920;2.332;2023-02-11T07:49:08;35.50;32.25;24.00
69205;PMS7003;56319;48.920;2.332;2023-02-11T07:51:34;36.00;31.75;23.00
69205;PMS7003;56319;48.920;2.332;2023-02-11T07:53:59;36.75;34.00;24.25
69205;PMS7003;56319;48.920;2.332;2023-02-11T07:56:25;37.50;33.00;23.50
69205;PMS7003;56319;48.920;2.332;2023-02-11T07:58:52;39.75;35.00;25.50
69205;PMS7003;56319;48.920;2.332;2023-02-11T08:01:20;37.25;33.50;23.75
69205;PMS7003;56319;48.920;2.332;2023-02-11T08:03:49;36.25;32.00;23.75
69205;PMS7003;56319;48.920;2.332;2023-02-11T08:06:16;35.25;33.75;24.25
69205;PMS7003;56319;48.920;2.332;2023-02-11T08:08:44;32.25;31.00;21.75
69205;PMS7003;56319;48.920;2.332;2023-02-11T08:11:11;36.75;34.00;23.25
69205;PMS7003;56319;48.920;2.332;2023-02-11T08:13:39;31.50;30.00;22.25
69205;PMS7003;56319;48.920;2.332;2023-02-11T08:16:05;33.75;32.25;23.25
69205;PMS7003;56319;48.920;2.332;2023-02-11T08:18:32;35.00;31.50;24.00
69205;PMS7003;56319;48.920;2.332;2023-02-11T08:21:03;37.25;31.50;23.00
69205;PMS7003;56319;48.920;2.332;2023-02-11T08:23:31;33.75;28.50;21.25
69205;PMS7003;56319;48.920;2.332;2023-02-11T08:26:00;27.50;27.00;21.25
69205;PMS7003;56319;48.920;2.332;2023-02-11T08:28:27;31.75;28.75;21.25
69205;PMS7003;56319;48.920;2.332;2023-02-11T08:30:52;31.75;30.25;22.75
69205;PMS7003;56319;48.920;2.332;2023-02-11T08:33:18;32.75;30.00;22.25
69205;PMS7003;56319;48.920;2.332;2023-02-11T08:35:43;31.25;27.00;21.25
69205;PMS7003;56319;48.920;2.332;2023-02-11T08:38:09;34.75;30.00;23.00
69205;PMS7003;56319;48.920;2.332;2023-02-11T08:40:34;32.50;31.00;22.25
69205;PMS7003;56319;48.920;2.332;2023-02-11T08:43:00;32.50;30.75;23.00
69205;PMS7003;56319;48.920;2.332;2023-02-11T08:45:26;35.75;31.50;23.50
69205;PMS7003;56319;48.920;2.332;2023-02-11T08:47:51;34.75;31.75;23.75
69205;PMS7003;56319;48.920;2.332;2023-02-11T08:50:17;36.00;32.00;24.00
69205;PMS7003;56319;48.920;2.332;2023-02-11T08:52:43;37.75;33.00;24.25
69205;PMS7003;56319;48.920;2.332;2023-02-11T08:55:08;34.75;30.50;21.75
69205;PMS7003;56319;48.920;2.332;2023-02-11T08:57:34;32.00;29.00;22.50
69205;PMS7003;56319;48.920;2.332;2023-02-11T09:00:00;40.75;34.00;24.75
69205;PMS7003;56319;48.920;2.332;2023-02-11T09:02:25;33.25;28.75;22.00
69205;PMS7003;56319;48.920;2.332;2023-02-11T09:04:51;31.75;29.75;22.50
69205;PMS7003;56319;48.920;2.332;2023-02-11T09:07:16;33.00;29.25;22.00
69205;PMS7003;56319;48.920;2.332;2023-02-11T09:09:42;27.50;26.00;21.00
69205;PMS7003;56319;48.920;2.332;2023-02-11T09:12:08;30.75;26.00;20.50
69205;PMS7003;56319;48.920;2.332;2023-02-11T09:14:33;27.75;26.25;22.50
69205;PMS7003;56319;48.920;2.332;2023-02-11T09:16:59;34.00;29.00;22.25
69205;PMS7003;56319;48.920;2.332;2023-02-11T09:19:24;35.00;28.00;22.50
69205;PMS7003;56319;48.920;2.332;2023-02-11T09:21:50;25.25;23.25;18.25
69205;PMS7003;56319;48.920;2.332;2023-02-11T09:24:16;34.00;29.50;22.75
69205;PMS7003;56319;48.920;2.332;2023-02-11T09:26:42;31.25;28.25;21.25
69205;PMS7003;56319;48.920;2.332;2023-02-11T09:29:08;28.00;28.00;21.25
69205;PMS7003;56319;48.920;2.332;2023-02-11T09:31:34;29.25;26.75;20.50
69205;PMS7003;56319;48.920;2.332;2023-02-11T09:34:01;30.00;27.50;22.00
69205;PMS7003;56319;48.920;2.332;2023-02-11T09:36:30;28.50;25.75;21.25
69205;PMS7003;56319;48.920;2.332;2023-02-11T09:38:59;37.25;33.00;22.75
69205;PMS7003;56319;48.920;2.332;2023-02-11T09:41:31;29.75;27.50;21.25
69205;PMS7003;56319;48.920;2.332;2023-02-11T09:44:19;29.00;27.75;21.25
69205;PMS7003;56319;48.920;2.332;2023-02-11T09:46:52;29.00;28.50;20.25
69205;PMS7003;56319;48.920;2.332;2023-02-11T09:49:27;25.75;24.00;21.00
69205;PMS7003;56319;48.920;2.332;2023-02-11T09:58:10;27.25;26.00;21.25
69205;PMS7003;56319;48.920;2.332;2023-02-11T10:01:00;29.00;24.25;20.00
69205;PMS7003;56319;48.920;2.332;2023-02-11T10:03:38;29.50;27.50;21.25
69205;PMS7003;56319;48.920;2.332;2023-02-11T10:18:27;29.00;28.25;21.25
69205;PMS7003;56319;48.920;2.332;2023-02-11T10:21:18;25.50;20.25;16.25
69205;PMS7003;56319;48.920;2.332;2023-02-11T10:24:11;25.25;24.00;19.25
69205;PMS7003;56319;48.920;2.332;2023-02-11T10:26:39;24.75;24.75;19.50
69205;PMS7003;56319;48.920;2.332;2023-02-11T10:29:11;29.50;24.25;20.00
69205;PMS7003;56319;48.920;2.332;2023-02-11T10:31:44;26.50;23.50;18.75
69205;PMS7003;56319;48.920;2.332;2023-02-11T10:34:12;27.00;23.75;17.75
69205;PMS7003;56319;48.920;2.332;2023-02-11T10:36:40;28.75;24.50;19.75
69205;PMS7003;56319;48.920;2.332;2023-02-11T10:41:54;25.75;23.25;19.50
69205;PMS7003;56319;48.920;2.332;2023-02-11T10:44:25;21.00;20.50;17.50
69205;PMS7003;56319;48.920;2.332;2023-02-11T10:46:56;24.00;22.75;18.50
69205;PMS7003;56319;48.920;2.332;2023-02-11T10:52:13;21.50;20.50;14.75
69205;PMS7003;56319;48.920;2.332;2023-02-11T10:57:53;21.50;19.75;15.25
69205;PMS7003;56319;48.920;2.332;2023-02-11T11:05:57;19.25;18.50;14.75
69205;PMS7003;56319;48.920;2.332;2023-02-11T11:11:13;21.00;19.75;15.75
69205;PMS7003;56319;48.920;2.332;2023-02-11T11:16:29;20.00;19.00;14.50
69205;PMS7003;56319;48.920;2.332;2023-02-11T11:21:51;23.75;20.75;16.75
69205;PMS7003;56319;48.920;2.332;2023-02-11T11:27:14;21.25;18.00;14.00
69205;PMS7003;56319;48.920;2.332;2023-02-11T11:29:44;18.25;16.75;13.75
69205;PMS7003;56319;48.920;2.332;2023-02-11T11:32:18;23.50;21.00;16.50
69205;PMS7003;56319;48.920;2.332;2023-02-11T11:34:50;20.75;19.00;15.50
69205;PMS7003;56319;48.920;2.332;2023-02-11T11:37:23;15.25;15.25;13.75
69205;PMS7003;56319;48.920;2.332;2023-02-11T11:39:54;21.25;19.75;14.50
69205;PMS7003;56319;48.920;2.332;2023-02-11T11:42:25;18.50;18.50;13.50
69205;PMS7003;56319;48.920;2.332;2023-02-11T11:44:55;24.75;17.75;14.00
69205;PMS7003;56319;48.920;2.332;2023-02-11T11:47:24;17.50;17.00;14.25
69205;PMS7003;56319;48.920;2.332;2023-02-11T11:58:28;15.50;15.50;13.50
69205;PMS7003;56319;48.920;2.332;2023-02-11T12:01:01;16.00;16.00;13.00
69205;PMS7003;56319;48.920;2.332;2023-02-11T12:09:39;18.25;16.75;12.75
69205;PMS7003;56319;48.920;2.332;2023-02-11T12:12:32;15.75;12.00;9.75
69205;PMS7003;56319;48.920;2.332;2023-02-11T12:15:10;14.75;13.25;12.25
69205;PMS7003;56319;48.920;2.332;2023-02-11T12:24:05;17.75;14.75;12.75
69205;PMS7003;56319;48.920;2.332;2023-02-11T12:26:58;15.25;15.25;13.25
69205;PMS7003;56319;48.920;2.332;2023-02-11T12:29:52;18.50;14.00;12.00
69205;PMS7003;56319;48.920;2.332;2023-02-11T12:32:31;18.50;15.25;12.25
69205;PMS7003;56319;48.920;2.332;2023-02-11T12:38:20;13.75;12.50;10.00
69205;PMS7003;56319;48.920;2.332;2023-02-11T12:41:14;16.75;16.50;13.75
69205;PMS7003;56319;48.920;2.332;2023-02-11T12:47:22;12.75;12.50;10.50
69205;PMS7003;56319;48.920;2.332;2023-02-11T12:50:03;13.75;13.75;12.25
69205;PMS7003;56319;48.920;2.332;2023-02-11T12:53:07;18.25;14.25;11.25
69205;PMS7003;56319;48.920;2.332;2023-02-11T12:55:59;14.00;13.00;11.25
69205;PMS7003;56319;48.920;2.332;2023-02-11T12:58:35;13.75;13.75;11.25
69205;PMS7003;56319;48.920;2.332;2023-02-11T13:01:04;12.25;12.25;11.00
69205;PMS7003;56319;48.920;2.332;2023-02-11T13:06:26;11.75;11.75;9.50
69205;PMS7003;56319;48.920;2.332;2023-02-11T13:09:00;10.25;10.25;9.25
69205;PMS7003;56319;48.920;2.332;2023-02-11T13:14:22;12.25;11.50;10.00
69205;PMS7003;56319;48.920;2.332;2023-02-11T13:16:53;13.75;12.00;9.75
69205;PMS7003;56319;48.920;2.332;2023-02-11T13:22:18;11.00;10.00;9.00
69205;PMS7003;56319;48.920;2.332;2023-02-11T13:25:01;10.25;10.25;7.75
69205;PMS7003;56319;48.920;2.332;2023-02-11T13:27:40;12.75;10.75;9.75
69205;PMS7003;56319;48.920;2.332;2023-02-11T13:30:19;13.00;12.00;10.00
69205;PMS7003;56319;48.920;2.332;2023-02-11T13:35:46;10.00;10.00;8.25
69205;PMS7003;56319;48.920;2.332;2023-02-11T13:38:33;10.00;10.00;8.25
69205;PMS7003;56319;48.920;2.332;2023-02-11T13:44:18;9.00;9.00;7.50
69205;PMS7003;56319;48.920;2.332;2023-02-11T13:49:48;9.75;9.50;8.25
69205;PMS7003;56319;48.920;2.332;2023-02-11T13:52:25;8.25;7.50;5.75
69205;PMS7003;56319;48.920;2.332;2023-02-11T13:54:55;10.50;9.25;8.00
69205;PMS7003;56319;48.920;2.332;2023-02-11T13:57:27;8.25;8.25;6.75
69205;PMS7003;56319;48.920;2.332;2023-02-11T13:59:56;8.50;8.00;6.00
69205;PMS7003;56319;48.920;2.332;2023-02-11T14:05:23;7.25;7.25;6.25
69205;PMS7003;56319;48.920;2.332;2023-02-11T14:08:18;8.00;8.00;7.00
69205;PMS7003;56319;48.920;2.332;2023-02-11T14:11:06;6.00;6.00;5.00
69205;PMS7003;56319;48.920;2.332;2023-02-11T14:19:52;7.75;7.00;6.50
69205;PMS7003;56319;48.920;2.332;2023-02-11T14:22:21;9.25;7.75;6.50
69205;PMS7003;56319;48.920;2.332;2023-02-11T14:27:54;7.00;7.00;6.25
69205;PMS7003;56319;48.920;2.332;2023-02-11T14:30:31;7.00;7.00;6.00
69205;PMS7003;56319;48.920;2.332;2023-02-11T14:33:13;8.00;8.00;6.75
69205;PMS7003;56319;48.920;2.332;2023-02-11T14:35:56;6.75;6.75;6.00
69205;PMS7003;56319;48.920;2.332;2023-02-11T14:38:33;8.00;6.00;6.00
69205;PMS7003;56319;48.920;2.332;2023-02-11T14:41:18;6.25;6.25;5.75
69205;PMS7003;56319;48.920;2.332;2023-02-11T14:43:51;9.25;6.00;5.00
69205;PMS7003;56319;48.920;2.332;2023-02-11T14:46:21;7.25;7.25;7.25
69205;PMS7003;56319;48.920;2.332;2023-02-11T14:48:49;8.00;8.00;6.25
69205;PMS7003;56319;48.920;2.332;2023-02-11T14:51:19;6.50;6.25;5.75
69205;PMS7003;56319;48.920;2.332;2023-02-11T14:53:51;6.00;6.00;5.00
69205;PMS7003;56319;48.920;2.332;2023-02-11T14:56:21;6.25;4.00;2.25
69205;PMS7003;56319;48.920;2.332;2023-02-11T14:58:50;6.00;6.00;5.00
69205;PMS7003;56319;48.920;2.332;2023-02-11T15:01:25;5.00;5.00;5.00
69205;PMS7003;56319;48.920;2.332;2023-02-11T15:04:03;6.50;6.00;5.25
69205;PMS7003;56319;48.920;2.332;2023-02-11T15:06:34;6.50;6.50;5.25
69205;PMS7003;56319;48.920;2.332;2023-02-11T15:09:03;5.75;5.25;5.00
69205;PMS7003;56319;48.920;2.332;2023-02-11T15:11:38;6.25;6.00;5.50
69205;PMS7003;56319;48.920;2.332;2023-02-11T15:14:08;9.75;6.25;5.25
69205;PMS7003;56319;48.920;2.332;2023-02-11T15:16:40;9.25;6.25;5.25
69205;PMS7003;56319;48.920;2.332;2023-02-11T15:19:13;7.00;6.00;5.25
69205;PMS7003;56319;48.920;2.332;2023-02-11T15:21:45;7.00;7.00;5.75
69205;PMS7003;56319;48.920;2.332;2023-02-11T15:27:12;5.50;5.50;5.00
69205;PMS7003;56319;48.920;2.332;2023-02-11T15:29:41;6.00;6.00;5.75
69205;PMS7003;56319;48.920;2.332;2023-02-11T15:32:13;5.75;5.75;4.00
69205;PMS7003;56319;48.920;2.332;2023-02-11T15:34:42;7.00;5.00;4.50
69205;PMS7003;56319;48.920;2.332;2023-02-11T15:37:11;6.00;6.00;5.00
69205;PMS7003;56319;48.920;2.332;2023-02-11T15:39:43;6.25;6.25;5.00
69205;PMS7003;56319;48.920;2.332;2023-02-11T15:42:16;5.75;5.75;4.25
69205;PMS7003;56319;48.920;2.332;2023-02-11T15:47:56;5.50;5.50;5.00
69205;PMS7003;56319;48.920;2.332;2023-02-11T15:50:26;5.75;5.75;5.50
69205;PMS7003;56319;48.920;2.332;2023-02-11T15:52:55;10.50;6.25;5.00
69205;PMS7003;56319;48.920;2.332;2023-02-11T15:55:23;6.00;6.00;5.00
69205;PMS7003;56319;48.920;2.332;2023-02-11T15:57:53;6.25;6.00;5.75
69205;PMS7003;56319;48.920;2.332;2023-02-11T16:00:23;6.00;4.25;3.75
69205;PMS7003;56319;48.920;2.332;2023-02-11T16:02:54;6.75;6.00;5.25
69205;PMS7003;56319;48.920;2.332;2023-02-11T16:05:24;8.75;6.00;5.00
69205;PMS7003;56319;48.920;2.332;2023-02-11T16:07:53;5.75;5.75;5.00
69205;PMS7003;56319;48.920;2.332;2023-02-11T16:10:24;6.00;6.00;5.25
69205;PMS7003;56319;48.920;2.332;2023-02-11T16:13:00;4.50;4.50;4.25
69205;PMS7003;56319;48.920;2.332;2023-02-11T16:15:48;9.00;6.25;5.75